Time;durP1;ratioP1;P1;durP2;ratioP2;P2;SDS_P1;SDS_P2;PMS_P1;PMS_P2;Temp;Humidity;BMP_temperature;BMP_pressure;BME280_temperature;BME280_humidity;BME280_pressure;Samples;Min_cycle;Max_cycle;Signal;HPM_P1;HPM_P2
2021/03/15 00:00:19;;;;;;;3.67;2.27;;;;;;;5.95;100.00;97483.41;5096600;28;20765;-70
2021/03/15 00:02:47;;;;;;;4.07;2.50;;;;;;;6.09;100.00;97484.06;5093906;28;20312;-69
2021/03/15 00:05:14;;;;;;;3.53;2.43;;;;;;;6.18;100.00;97477.41;5093999;28;20320;-70
2021/03/15 00:07:41;;;;;;;2.50;2.30;;;;;;;6.05;100.00;97481.16;5094221;28;21160;-70
2021/03/15 00:10:09;;;;;;;3.57;2.57;;;;;;;6.02;100.00;97473.59;5094063;28;20236;-70
2021/03/15 00:12:36;;;;;;;3.33;2.83;;;;;;;6.10;100.00;97475.50;5094956;28;20244;-70
2021/03/15 00:15:03;;;;;;;3.40;2.50;;;;;;;6.14;100.00;97476.47;5087548;28;20198;-70
2021/03/15 00:17:29;;;;;;;2.50;2.30;;;;;;;5.99;100.00;97479.72;5078584;28;20756;-71
2021/03/15 00:19:56;;;;;;;4.17;2.60;;;;;;;5.97;100.00;97481.97;5080382;28;20408;-70
2021/03/15 00:22:22;;;;;;;2.30;2.10;;;;;;;6.07;100.00;97475.34;5076537;28;20628;-70
2021/03/15 00:24:49;;;;;;;2.67;2.30;;;;;;;5.89;100.00;97473.78;5073115;28;20317;-70
2021/03/15 00:27:15;;;;;;;2.90;2.57;;;;;;;5.95;100.00;97473.28;5075381;28;20570;-71
2021/03/15 00:29:41;;;;;;;3.57;2.50;;;;;;;5.73;100.00;97475.38;5074166;28;20216;-71
2021/03/15 00:32:07;;;;;;;3.03;2.50;;;;;;;5.94;100.00;97474.41;5073169;28;20632;-70
2021/03/15 00:34:33;;;;;;;3.40;2.50;;;;;;;5.76;100.00;97472.78;5071499;28;20205;-71
2021/03/15 00:37:01;;;;;;;2.63;2.40;;;;;;;5.66;100.00;97475.81;5070821;28;20667;-71
2021/03/15 00:39:27;;;;;;;3.20;2.80;;;;;;;5.71;100.00;97467.44;5079386;28;20204;-70
2021/03/15 00:41:53;;;;;;;3.13;2.60;;;;;;;5.73;100.00;97469.88;5092264;28;20283;-69
2021/03/15 00:44:19;;;;;;;3.90;2.43;;;;;;;5.80;100.00;97460.03;5090964;28;20238;-69
2021/03/15 00:46:45;;;;;;;3.30;3.00;;;;;;;5.60;100.00;97463.41;5090660;28;20239;-69
2021/03/15 00:49:12;;;;;;;3.23;2.93;;;;;;;5.64;100.00;97458.91;5092093;28;20201;-71
2021/03/15 00:51:38;;;;;;;3.63;2.70;;;;;;;5.68;100.00;97461.81;5091612;28;20208;-71
2021/03/15 00:54:04;;;;;;;4.10;3.00;;;;;;;5.50;100.00;97471.16;5091289;28;20645;-70
2021/03/15 00:56:30;;;;;;;3.70;3.23;;;;;;;5.73;100.00;97478.88;5091776;28;20964;-70
2021/03/15 00:58:56;;;;;;;3.77;3.07;;;;;;;5.84;100.00;97472.00;5091374;28;20240;-71
2021/03/15 01:33:53;;;;;;;4.73;3.60;;;;;;;6.04;100.00;97449.41;5108527;27;20504;-70
2021/03/15 01:36:19;;;;;;;3.80;3.37;;;;;;;6.11;100.00;97444.25;5107790;28;20247;-70
2021/03/15 01:38:45;;;;;;;4.40;3.80;;;;;;;5.97;100.00;97432.69;5108739;28;20246;-69
2021/03/15 01:41:11;;;;;;;4.83;3.40;;;;;;;5.89;100.00;97446.41;5107644;28;20207;-70
2021/03/15 01:43:37;;;;;;;6.17;3.83;;;;;;;5.93;100.00;97441.88;5108631;28;20268;-69
2021/03/15 01:46:03;;;;;;;5.93;3.53;;;;;;;6.01;100.00;97433.66;5108677;28;20251;-70
2021/03/15 01:48:29;;;;;;;4.30;3.83;;;;;;;6.06;100.00;97436.22;5109464;28;20204;-70
2021/03/15 01:50:56;;;;;;;4.57;3.73;;;;;;;6.02;100.00;97432.50;5117581;28;20212;-70
2021/03/15 01:53:23;;;;;;;3.70;3.20;;;;;;;5.97;100.00;97434.59;5123687;28;20223;-69
2021/03/15 01:55:51;;;;;;;5.20;3.63;;;;;;;5.83;100.00;97437.53;5127112;28;20247;-71
2021/03/15 01:58:17;;;;;;;3.93;3.40;;;;;;;5.84;100.00;97433.66;5113853;28;20253;-70
2021/03/15 02:00:44;;;;;;;6.20;3.90;;;;;;;5.89;100.00;97427.22;5109030;28;20249;-71
2021/03/15 02:03:11;;;;;;;5.20;4.00;;;;;;;5.98;100.00;97428.00;5108616;28;20291;-71
2021/03/15 02:05:38;;;;;;;6.00;3.67;;;;;;;6.09;100.00;97419.13;5109532;28;20236;-71
2021/03/15 02:08:06;;;;;;;5.43;3.87;;;;;;;6.12;100.00;97415.75;5109549;28;20212;-71
2021/03/15 02:10:36;;;;;;;5.03;3.80;;;;;;;5.96;100.00;97420.13;5109075;28;20203;-71
2021/03/15 02:13:32;;;;;;;6.10;3.60;;;;;;;6.05;100.00;97411.88;5107315;28;20227;-71
2021/03/15 02:16:15;;;;;;;4.50;3.83;;;;;;;5.87;100.00;97405.66;5107996;28;20265;-71
2021/03/15 02:19:00;;;;;;;5.47;4.07;;;;;;;5.87;100.00;97411.13;5108240;28;20235;-70
2021/03/15 02:21:38;;;;;;;4.93;3.53;;;;;;;5.90;100.00;97405.00;5108423;28;20262;-71
2021/03/15 02:24:17;;;;;;;5.63;3.80;;;;;;;5.73;100.00;97407.72;5107499;28;20238;-70
2021/03/15 02:27:01;;;;;;;6.67;4.00;;;;;;;5.95;100.00;97407.56;5108651;28;20260;-70
2021/03/15 02:30:18;;;;;;;7.87;3.40;;;;;;;6.01;100.00;97410.91;5108230;28;20641;-71
2021/03/15 02:33:18;;;;;;;6.73;3.43;;;;;;;5.93;100.00;97409.81;5094293;28;20322;-71
2021/03/15 02:35:46;;;;;;;7.53;3.50;;;;;;;5.83;100.00;97401.94;5107999;28;20314;-71
2021/03/15 02:38:14;;;;;;;5.57;3.17;;;;;;;5.79;100.00;97395.47;5107785;28;20200;-71
2021/03/15 02:40:44;;;;;;;7.53;3.40;;;;;;;5.87;100.00;97394.69;5107975;28;20271;-70
2021/03/15 02:43:17;;;;;;;7.20;3.90;;;;;;;6.00;100.00;97392.91;5105861;28;20287;-70
2021/03/15 02:45:45;;;;;;;7.87;3.93;;;;;;;5.82;100.00;97397.56;5093452;28;20311;-70
2021/03/15 02:48:14;;;;;;;5.37;3.60;;;;;;;5.92;100.00;97393.72;5093423;28;20228;-71
2021/03/15 02:50:43;;;;;;;5.63;3.57;;;;;;;5.87;100.00;97389.22;5093864;28;20639;-71
2021/03/15 02:53:14;;;;;;;6.07;3.60;;;;;;;5.96;100.00;97392.75;5093312;28;20735;-70
2021/03/15 02:55:42;;;;;;;10.07;4.20;;;;;;;6.23;100.00;97391.53;5094189;28;20220;-71
2021/03/15 02:58:08;;;;;;;5.90;3.50;;;;;;;6.11;100.00;97392.22;5094167;28;20696;-71
2021/03/15 03:00:35;;;;;;;5.70;3.37;;;;;;;6.06;100.00;97386.91;5094475;28;20293;-70
2021/03/15 03:03:04;;;;;;;9.30;3.50;;;;;;;5.97;100.00;97388.06;5093720;28;20205;-71
2021/03/15 03:05:32;;;;;;;4.40;3.40;;;;;;;5.94;100.00;97386.78;5093689;28;20783;-71
2021/03/15 03:08:17;;;;;;;6.17;2.93;;;;;;;6.10;100.00;97387.06;5092880;28;20242;-70
2021/03/15 03:10:44;;;;;;;5.37;3.50;;;;;;;6.16;100.00;97391.25;5093399;28;20310;-70
2021/03/15 03:13:11;;;;;;;5.87;3.30;;;;;;;6.07;100.00;97388.53;5091578;28;20657;-70
2021/03/15 03:15:38;;;;;;;5.90;3.40;;;;;;;6.21;100.00;97382.03;5079159;28;20225;-69
2021/03/15 03:18:06;;;;;;;5.73;3.30;;;;;;;6.07;100.00;97383.06;5073360;28;20205;-71
2021/03/15 03:20:33;;;;;;;8.63;3.30;;;;;;;6.09;100.00;97378.03;5071956;28;20209;-71
2021/03/15 03:23:02;;;;;;;4.33;3.30;;;;;;;6.22;100.00;97378.16;5072647;28;20239;-70
2021/03/15 03:25:29;;;;;;;6.13;3.50;;;;;;;6.06;100.00;97380.63;5073407;28;20230;-71
2021/03/15 03:27:57;;;;;;;8.13;3.57;;;;;;;6.14;100.00;97379.81;5073651;28;20244;-69
2021/03/15 03:30:29;;;;;;;4.53;3.27;;;;;;;6.12;100.00;97385.63;5072983;28;20299;-69
2021/03/15 03:33:02;;;;;;;8.53;3.70;;;;;;;6.04;100.00;97372.75;5071297;28;20269;-69
2021/03/15 03:35:29;;;;;;;4.67;3.57;;;;;;;5.97;100.00;97380.66;5072887;28;20629;-69
2021/03/15 03:37:56;;;;;;;5.73;3.70;;;;;;;6.13;100.00;97375.47;5073194;28;20303;-69
2021/03/15 03:40:23;;;;;;;4.17;3.47;;;;;;;6.11;100.00;97380.47;5089190;28;20231;-70
2021/03/15 03:42:49;;;;;;;8.97;3.87;;;;;;;6.20;100.00;97381.25;5094982;28;20260;-70
2021/03/15 03:45:15;;;;;;;5.00;3.43;;;;;;;6.09;100.00;97374.50;5097413;28;20284;-70
2021/03/15 03:47:43;;;;;;;6.97;4.07;;;;;;;6.16;100.00;97377.53;5096007;28;20215;-70
2021/03/15 03:50:13;;;;;;;4.50;3.70;;;;;;;6.04;100.00;97369.19;5097304;28;20234;-71
2021/03/15 03:52:45;;;;;;;5.23;3.80;;;;;;;6.23;100.00;97377.03;5093124;28;20286;-70
2021/03/15 03:55:16;;;;;;;4.30;3.67;;;;;;;6.04;100.00;97372.75;5091826;28;20225;-70
2021/03/15 03:57:45;;;;;;;7.17;3.83;;;;;;;5.83;100.00;97379.22;5091570;28;20216;-70
2021/03/15 04:00:14;;;;;;;7.33;4.30;;;;;;;5.98;100.00;97379.53;5092773;28;20299;-70
2021/03/15 04:03:13;;;;;;;8.40;4.57;;;;;;;6.05;100.00;97377.09;5092081;28;20238;-70
2021/03/15 04:05:43;;;;;;;6.17;4.13;;;;;;;6.21;100.00;97382.84;5090978;28;20273;-70
2021/03/15 04:08:18;;;;;;;5.73;3.87;;;;;;;5.94;100.00;97378.56;5092664;28;20284;-71
2021/03/15 04:10:46;;;;;;;6.40;4.03;;;;;;;5.74;100.00;97381.97;5092427;28;20358;-71
2021/03/15 04:13:18;;;;;;;7.40;4.07;;;;;;;5.91;100.00;97378.44;5091939;28;20319;-71
2021/03/15 04:15:46;;;;;;;5.33;3.60;;;;;;;5.57;100.00;97386.63;5077230;28;20217;-70
2021/03/15 04:18:18;;;;;;;5.83;3.90;;;;;;;5.88;100.00;97379.88;5072207;28;20213;-71
2021/03/15 04:20:48;;;;;;;6.63;4.17;;;;;;;5.96;100.00;97373.59;5072378;28;20201;-71
2021/03/15 04:23:20;;;;;;;5.43;3.60;;;;;;;5.77;100.00;97381.31;5071847;28;20254;-71
2021/03/15 04:25:48;;;;;;;4.90;4.17;;;;;;;5.73;100.00;97385.03;5071215;28;20228;-72
2021/03/15 04:28:15;;;;;;;8.47;4.97;;;;;;;5.88;100.00;97379.88;5072801;28;20237;-70
2021/03/15 04:30:43;;;;;;;6.07;4.17;;;;;;;5.68;100.00;97385.19;5087182;28;20229;-71
2021/03/15 04:33:10;;;;;;;7.30;4.43;;;;;;;5.78;100.00;97380.19;5090142;28;20717;-70
2021/03/15 04:35:40;;;;;;;7.47;4.57;;;;;;;5.94;100.00;97381.31;5091136;28;20229;-71
2021/03/15 04:38:09;;;;;;;6.63;4.63;;;;;;;5.71;100.00;97379.84;5092554;28;20255;-71
2021/03/15 04:40:37;;;;;;;6.73;4.27;;;;;;;5.75;100.00;97380.81;5092317;28;20240;-71
2021/03/15 04:43:04;;;;;;;9.20;4.73;;;;;;;5.69;100.00;97384.84;5091555;28;20257;-70
2021/03/15 04:45:37;;;;;;;6.53;4.37;;;;;;;5.94;100.00;97377.75;5091794;28;20228;-70
2021/03/15 04:48:06;;;;;;;10.13;5.00;;;;;;;5.96;100.00;97384.53;5091684;28;20204;-70
2021/03/15 04:50:33;;;;;;;6.13;4.27;;;;;;;5.86;100.00;97384.88;5091573;28;20295;-70
2021/03/15 04:53:02;;;;;;;6.67;4.67;;;;;;;6.00;100.00;97380.00;5091261;28;20335;-70
2021/03/15 04:55:28;;;;;;;7.80;5.00;;;;;;;6.07;100.00;97380.31;5091457;28;20262;-70
2021/03/15 04:57:57;;;;;;;9.50;4.73;;;;;;;5.88;100.00;97377.13;5091650;28;20232;-70
2021/03/15 05:00:24;;;;;;;7.67;4.90;;;;;;;5.83;100.00;97374.56;5091272;28;20204;-69
2021/03/15 05:02:51;;;;;;;9.20;4.70;;;;;;;5.57;100.00;97379.25;5091245;28;20678;-69
2021/03/15 05:05:17;;;;;;;6.03;4.60;;;;;;;5.62;100.00;97381.03;5091537;28;20720;-69
2021/03/15 05:07:47;;;;;;;7.47;4.73;;;;;;;5.57;100.00;97372.97;5091400;28;20737;-71
2021/03/15 05:10:14;;;;;;;7.90;4.80;;;;;;;5.87;100.00;97378.28;5091574;28;20295;-71
2021/03/15 05:12:41;;;;;;;5.97;5.30;;;;;;;5.69;100.00;97382.13;5091296;28;20307;-71
2021/03/15 05:15:10;;;;;;;6.00;4.43;;;;;;;5.64;100.00;97374.06;5080352;28;20253;-71
2021/03/15 05:17:38;;;;;;;9.10;5.43;;;;;;;5.79;100.00;97368.09;5071151;28;20249;-71
2021/03/15 05:20:08;;;;;;;7.60;5.13;;;;;;;5.88;100.00;97379.06;5071321;28;20211;-70
2021/03/15 05:22:36;;;;;;;9.90;5.10;;;;;;;5.90;100.00;97363.94;5071444;28;20291;-70
2021/03/15 05:25:05;;;;;;;6.27;5.07;;;;;;;5.92;100.00;97358.94;5071038;28;20758;-70
2021/03/15 05:27:33;;;;;;;7.97;5.10;;;;;;;5.57;100.00;97362.81;5073028;28;20693;-69
2021/03/15 05:30:08;;;;;;;7.03;5.20;;;;;;;5.57;100.00;97362.81;5074418;28;20896;-70
2021/03/15 05:32:37;;;;;;;7.87;5.50;;;;;;;5.72;100.00;97365.06;5072979;28;20228;-71
2021/03/15 05:35:05;;;;;;;6.50;5.40;;;;;;;5.78;100.00;97363.78;5070999;28;20209;-70
2021/03/15 05:37:32;;;;;;;6.70;5.37;;;;;;;5.91;100.00;97360.03;5071132;28;20209;-69
2021/03/15 05:40:14;;;;;;;9.23;5.60;;;;;;;5.87;100.00;97350.91;5083118;28;20240;-71
2021/03/15 05:43:00;;;;;;;7.13;5.27;;;;;;;5.78;100.00;97346.53;5091971;28;20275;-69
2021/03/15 05:46:02;;;;;;;11.73;5.63;;;;;;;5.65;100.00;97348.34;5091416;28;20224;-69
2021/03/15 05:49:03;;;;;;;7.03;5.13;;;;;;;5.82;100.00;97333.81;5090855;28;20204;-69
2021/03/15 05:52:06;;;;;;;10.80;5.70;;;;;;;5.79;100.00;97327.03;5091079;28;20211;-70
2021/03/15 05:54:38;;;;;;;7.57;5.57;;;;;;;5.72;100.00;97337.69;5088855;28;20269;-69
2021/03/15 05:57:23;;;;;;;9.77;5.80;;;;;;;5.73;100.00;97342.03;5090882;28;20282;-70
2021/03/15 06:00:04;;;;;;;7.40;5.87;;;;;;;5.79;100.00;97332.53;5090800;28;20238;-70
2021/03/15 06:02:49;;;;;;;8.67;6.73;;;;;;;5.85;100.00;97330.44;5090336;28;20746;-70
2021/03/15 06:05:28;;;;;;;7.43;6.10;;;;;;;5.88;100.00;97325.13;5091832;28;20754;-69
2021/03/15 06:08:06;;;;;;;7.07;6.37;;;;;;;5.69;100.00;97326.59;5090578;28;20624;-69
2021/03/15 06:10:34;;;;;;;8.47;6.60;;;;;;;5.72;100.00;97324.00;5091899;28;20208;-70
2021/03/15 06:13:11;;;;;;;7.53;6.73;;;;;;;5.83;100.00;97321.75;5089098;28;20278;-70
2021/03/15 06:15:40;;;;;;;12.00;7.77;;;;;;;6.30;100.00;97326.06;5090402;28;20960;-70
2021/03/15 06:18:09;;;;;;;8.83;7.27;;;;;;;6.25;100.00;97322.72;5090454;28;20204;-69
2021/03/15 06:20:40;;;;;;;11.00;6.70;;;;;;;6.17;100.00;97310.66;5097506;28;20334;-69
2021/03/15 06:23:06;;;;;;;8.50;7.70;;;;;;;6.11;100.00;97312.78;5091821;28;20280;-70
2021/03/15 06:25:34;;;;;;;10.63;7.80;;;;;;;6.24;100.00;97315.63;5073865;28;20260;-69
2021/03/15 06:28:02;;;;;;;7.60;6.57;;;;;;;6.30;100.00;97309.63;5073991;28;20296;-70
2021/03/15 06:30:28;;;;;;;12.73;7.90;;;;;;;6.21;100.00;97305.31;5075313;28;20213;-71
2021/03/15 06:32:57;;;;;;;11.47;7.33;;;;;;;6.10;100.00;97310.38;5073915;28;20660;-70
2021/03/15 06:35:27;;;;;;;11.97;8.07;;;;;;;6.21;100.00;97313.53;5074696;28;20304;-70
2021/03/15 06:37:54;;;;;;;16.37;8.10;;;;;;;6.24;100.00;97305.47;5056941;28;20327;-70
2021/03/15 06:40:21;;;;;;;9.37;7.73;;;;;;;6.02;100.00;97309.28;5089116;28;20730;-69
2021/03/15 06:42:50;;;;;;;12.47;8.70;;;;;;;6.29;100.00;97310.78;5094454;28;20283;-71
2021/03/15 06:45:20;;;;;;;13.40;8.57;;;;;;;6.43;100.00;97310.53;5093842;28;20220;-70
2021/03/15 06:47:49;;;;;;;13.70;8.23;;;;;;;6.18;100.00;97319.69;5094510;28;20285;-71
2021/03/15 06:50:17;;;;;;;11.30;7.63;;;;;;;6.04;100.00;97320.72;5094251;28;20232;-69
2021/03/15 06:52:52;;;;;;;12.33;7.87;;;;;;;6.39;100.00;97317.81;5093564;28;20228;-70
2021/03/15 06:55:34;;;;;;;9.03;7.90;;;;;;;6.41;100.00;97310.06;5093748;28;20849;-71
2021/03/15 06:58:00;;;;;;;16.50;7.73;;;;;;;6.59;100.00;97314.31;5094425;28;20240;-70
2021/03/15 07:00:29;;;;;;;11.93;7.40;;;;;;;6.55;100.00;97308.69;5094893;28;20243;-70
2021/03/15 07:03:03;;;;;;;13.00;7.50;;;;;;;6.77;100.00;97307.59;5095534;28;20260;-71
2021/03/15 07:05:31;;;;;;;10.03;7.03;;;;;;;6.83;100.00;97303.50;5098320;28;20224;-70
2021/03/15 07:08:01;;;;;;;7.33;6.10;;;;;;;6.96;100.00;97292.28;5103418;28;20234;-70
2021/03/15 07:10:28;;;;;;;6.77;6.07;;;;;;;6.92;100.00;97290.53;5113381;28;20213;-70
2021/03/15 07:13:12;;;;;;;9.27;5.70;;;;;;;7.15;100.00;97292.59;5113796;28;20225;-71
2021/03/15 07:15:43;;;;;;;7.37;5.53;;;;;;;7.23;100.00;97299.16;5104716;28;20274;-70
2021/03/15 07:18:21;;;;;;;9.20;5.00;;;;;;;7.92;100.00;97300.06;5095070;28;20291;-69
2021/03/15 07:20:56;;;;;;;7.77;4.70;;;;;;;7.99;100.00;97300.31;5094154;28;20811;-69
2021/03/15 07:23:50;;;;;;;6.13;4.27;;;;;;;7.96;100.00;97290.00;5093065;28;20199;-70
2021/03/15 07:26:19;;;;;;;9.60;5.10;;;;;;;7.57;100.00;97293.34;5093083;28;20261;-70
2021/03/15 07:28:46;;;;;;;7.60;4.50;;;;;;;7.41;100.00;97299.81;5092818;28;20291;-70
2021/03/15 07:31:32;;;;;;;9.73;4.33;;;;;;;7.23;100.00;97299.16;5093692;28;20222;-69
2021/03/15 07:33:58;;;;;;;6.53;4.63;;;;;;;7.46;100.00;97296.88;5092960;28;20228;-71
2021/03/15 07:36:27;;;;;;;7.47;4.97;;;;;;;7.49;100.00;97297.00;5093644;28;20263;-70
2021/03/15 07:38:54;;;;;;;10.13;4.60;;;;;;;7.42;100.00;97294.00;5092754;28;20208;-70
2021/03/15 07:41:42;;;;;;;7.47;4.60;;;;;;;7.79;100.00;97297.66;5093254;28;20208;-70
2021/03/15 07:44:31;;;;;;;8.70;5.13;;;;;;;7.88;100.00;97290.91;5091309;28;20323;-70
2021/03/15 07:47:05;;;;;;;8.90;4.33;;;;;;;8.29;100.00;97289.16;5091070;28;20577;-71
2021/03/15 07:49:38;;;;;;;7.53;4.40;;;;;;;8.54;100.00;97288.03;5093356;28;20223;-70
2021/03/15 07:52:07;;;;;;;7.57;3.80;;;;;;;9.31;100.00;97279.34;5093447;28;20204;-70
2021/03/15 07:54:39;;;;;;;6.00;3.43;;;;;;;10.23;100.00;97273.59;5093207;28;20236;-69
2021/03/15 07:57:25;;;;;;;7.93;3.60;;;;;;;10.02;100.00;97271.06;5093514;28;20778;-70
2021/03/15 07:59:56;;;;;;;8.77;3.37;;;;;;;10.41;100.00;97264.59;5093530;28;20211;-70
2021/03/15 08:02:30;;;;;;;8.40;3.27;;;;;;;9.95;100.00;97271.69;5090308;28;20197;-70
2021/03/15 08:04:58;;;;;;;5.50;3.30;;;;;;;10.09;100.00;97261.03;5094397;28;20308;-70
2021/03/15 08:07:27;;;;;;;6.53;3.23;;;;;;;10.65;100.00;97258.06;5092668;28;20208;-70
2021/03/15 08:09:56;;;;;;;5.83;2.93;;;;;;;9.79;100.00;97261.78;5092759;28;20257;-70
2021/03/15 08:12:27;;;;;;;5.30;2.73;;;;;;;9.44;100.00;97261.63;5091305;28;20208;-71
2021/03/15 08:14:59;;;;;;;8.27;3.53;;;;;;;9.09;100.00;97264.19;5092153;28;20235;-70
2021/03/15 08:17:28;;;;;;;6.57;3.27;;;;;;;9.21;100.00;97266.88;5092863;28;20213;-70
2021/03/15 08:19:57;;;;;;;7.17;4.13;;;;;;;8.91;100.00;97268.34;5093449;28;20556;-70
2021/03/15 08:22:27;;;;;;;6.33;4.17;;;;;;;8.86;100.00;97273.28;5092103;28;20204;-70
2021/03/15 08:24:59;;;;;;;8.53;4.43;;;;;;;8.57;100.00;97266.13;5090786;28;20240;-69
2021/03/15 08:27:29;;;;;;;6.97;5.00;;;;;;;8.86;100.00;97265.03;5092325;28;20216;-70
2021/03/15 08:30:01;;;;;;;6.33;4.03;;;;;;;8.25;100.00;97263.53;5091499;28;20670;-70
2021/03/15 08:32:33;;;;;;;7.27;3.50;;;;;;;9.74;100.00;97251.03;5092149;28;20313;-71
2021/03/15 08:35:00;;;;;;;9.50;3.70;;;;;;;11.65;100.00;97241.28;5091639;28;20212;-69
2021/03/15 08:37:56;;;;;;;4.20;3.30;;;;;;;13.29;100.00;97227.69;5094767;28;20209;-70
2021/03/15 08:40:40;;;;;;;6.30;3.90;;;;;;;12.03;100.00;97238.44;5092349;28;20578;-69
2021/03/15 08:43:19;;;;;;;8.17;3.47;;;;;;;12.51;100.00;97236.06;5091435;28;20299;-70
2021/03/15 08:45:58;;;;;;;6.97;3.00;;;;;;;14.04;100.00;97222.59;5092347;28;20231;-70
2021/03/15 08:48:33;;;;;;;6.67;3.80;;;;;;;13.72;100.00;97221.44;5097773;28;20238;-70
2021/03/15 08:51:01;;;;;;;5.77;3.60;;;;;;;12.68;100.00;97225.25;5097763;28;20208;-72
2021/03/15 08:53:36;;;;;;;7.47;3.47;;;;;;;11.74;100.00;97225.28;5098862;28;20212;-71
2021/03/15 08:56:21;;;;;;;5.70;3.10;;;;;;;10.58;100.00;97227.56;5091067;28;20314;-72
2021/03/15 08:58:52;;;;;;;5.10;3.10;;;;;;;9.81;100.00;97227.22;5091982;28;20245;-70
2021/03/15 09:01:22;;;;;;;5.53;3.07;;;;;;;9.79;100.00;97221.28;5090299;28;20238;-71
2021/03/15 09:03:59;;;;;;;4.23;3.00;;;;;;;9.64;100.00;97227.56;5091328;28;20598;-70
2021/03/15 09:06:32;;;;;;;4.20;2.40;;;;;;;9.70;100.00;97214.31;5091183;28;20220;-71
2021/03/15 09:09:08;;;;;;;4.00;2.20;;;;;;;10.03;100.00;97206.50;5091931;28;20334;-70
2021/03/15 09:11:34;;;;;;;6.33;1.90;;;;;;;10.94;100.00;97196.81;5091290;28;20239;-69
2021/03/15 09:14:25;;;;;;;3.47;1.80;;;;;;;10.81;100.00;97203.63;5091763;28;20220;-69
2021/03/15 09:16:59;;;;;;;2.47;1.47;;;;;;;10.59;100.00;97190.50;5092141;28;20318;-69
2021/03/15 09:19:35;;;;;;;5.30;1.90;;;;;;;10.23;100.00;97194.44;5090784;28;20257;-72
2021/03/15 09:22:04;;;;;;;3.77;2.43;;;;;;;10.21;100.00;97185.72;5091677;28;20207;-71
2021/03/15 09:24:39;;;;;;;5.63;2.23;;;;;;;10.44;100.00;97194.13;5091066;28;20274;-72
2021/03/15 09:27:10;;;;;;;4.33;2.40;;;;;;;10.07;100.00;97191.66;5091376;28;20354;-72
2021/03/15 09:29:38;;;;;;;4.43;2.63;;;;;;;9.82;100.00;97190.25;5089714;28;20208;-71
2021/03/15 09:32:10;;;;;;;6.00;2.60;;;;;;;9.43;100.00;97193.94;5091821;28;20212;-71
2021/03/15 09:34:38;;;;;;;5.80;2.70;;;;;;;9.46;100.00;97200.69;5089907;28;20261;-72
2021/03/15 09:37:05;;;;;;;6.10;2.53;;;;;;;9.64;100.00;97193.69;5091861;28;20760;-71
2021/03/15 09:39:32;;;;;;;2.90;2.20;;;;;;;9.31;100.00;97190.44;5090002;28;20739;-72
2021/03/15 09:42:00;;;;;;;2.40;1.63;;;;;;;9.29;100.00;97192.78;5091297;28;20276;-72
2021/03/15 09:44:29;;;;;;;5.27;2.20;;;;;;;8.68;100.00;97189.44;5090323;28;20221;-72
2021/03/15 09:46:56;;;;;;;5.10;1.97;;;;;;;8.68;100.00;97178.44;5091690;28;20228;-72
2021/03/15 09:49:39;;;;;;;4.23;2.10;;;;;;;8.89;100.00;97182.63;5104300;28;20208;-71
2021/03/15 09:52:13;;;;;;;3.67;1.70;;;;;;;9.07;100.00;97175.66;5112426;28;20184;-71
2021/03/15 09:54:45;;;;;;;4.73;2.33;;;;;;;9.02;100.00;97178.66;5114226;28;20241;-72
2021/03/15 09:57:13;;;;;;;3.57;2.20;;;;;;;8.99;100.00;97167.56;5097785;28;20224;-72
2021/03/15 09:59:40;;;;;;;3.17;2.23;;;;;;;8.82;100.00;97176.09;5093420;28;20208;-72
2021/03/15 10:02:06;;;;;;;4.40;2.43;;;;;;;9.08;100.00;97171.78;5095330;28;20204;-72
2021/03/15 10:04:39;;;;;;;4.07;2.80;;;;;;;8.73;100.00;97180.94;5095400;28;20224;-72
2021/03/15 10:07:09;;;;;;;6.30;3.27;;;;;;;8.79;100.00;97169.38;5096748;28;20627;-70
2021/03/15 10:09:40;;;;;;;5.13;2.60;;;;;;;8.63;100.00;97167.69;5095344;28;20207;-69
2021/03/15 10:12:18;;;;;;;4.20;2.70;;;;;;;8.61;100.00;97173.53;5095265;28;20216;-70
2021/03/15 10:14:44;;;;;;;6.57;3.00;;;;;;;8.53;100.00;97166.22;5094425;28;20200;-71
2021/03/15 10:17:10;;;;;;;6.80;2.63;;;;;;;8.72;100.00;97160.09;5094671;28;20254;-71
2021/03/15 10:19:36;;;;;;;6.97;2.90;;;;;;;8.87;100.00;97148.34;5095274;28;20212;-70
2021/03/15 10:22:16;;;;;;;3.30;2.57;;;;;;;8.91;100.00;97157.50;5095127;28;20204;-70
2021/03/15 10:24:44;;;;;;;2.93;2.33;;;;;;;8.06;100.00;97163.16;5076867;28;20630;-70
2021/03/15 10:27:18;;;;;;;1.87;1.70;;;;;;;8.62;100.00;97155.09;5098038;28;20235;-70
2021/03/15 10:30:10;;;;;;;3.00;2.43;;;;;;;8.20;100.00;97162.81;5097711;28;20304;-70
2021/03/15 10:32:40;;;;;;;6.57;2.07;;;;;;;8.11;100.00;97159.41;5097035;28;20285;-70
2021/03/15 10:35:08;;;;;;;5.83;3.00;;;;;;;8.29;100.00;97155.28;5093772;28;20258;-69
2021/03/15 10:37:42;;;;;;;6.00;3.00;;;;;;;8.29;100.00;97154.47;5094402;28;20245;-70
2021/03/15 10:40:11;;;;;;;3.10;2.80;;;;;;;8.64;100.00;97144.53;5093775;28;20254;-69
2021/03/15 10:42:39;;;;;;;4.73;2.80;;;;;;;9.11;100.00;97139.97;5093997;28;20249;-70
2021/03/15 10:45:11;;;;;;;4.03;2.83;;;;;;;9.20;100.00;97133.16;5093990;28;20299;-70
2021/03/15 10:47:38;;;;;;;4.53;2.90;;;;;;;8.93;100.00;97134.00;5094162;28;20209;-70
2021/03/15 10:50:34;;;;;;;4.57;3.00;;;;;;;9.12;100.00;97133.34;5094170;28;20763;-70
2021/03/15 10:53:16;;;;;;;3.03;2.27;;;;;;;8.86;100.00;97128.31;5093752;28;20204;-70
2021/03/15 10:55:43;;;;;;;3.73;2.30;;;;;;;8.31;100.00;97133.75;5093415;28;20232;-69
2021/03/15 10:58:17;;;;;;;5.03;2.10;;;;;;;8.44;100.00;97137.25;5094879;28;20301;-71
2021/03/15 11:00:48;;;;;;;3.10;2.13;;;;;;;8.13;100.00;97135.94;5094190;28;20247;-70
2021/03/15 11:03:20;;;;;;;3.33;2.37;;;;;;;8.51;100.00;97131.97;5093768;28;20228;-72
2021/03/15 11:05:47;;;;;;;2.93;2.20;;;;;;;8.65;100.00;97118.66;5091189;28;20236;-70
2021/03/15 11:08:19;;;;;;;3.53;2.00;;;;;;;9.19;100.00;97122.50;5082487;28;20204;-71
2021/03/15 11:10:46;;;;;;;3.57;2.33;;;;;;;9.18;100.00;97121.69;5082613;28;20204;-71
2021/03/15 11:13:19;;;;;;;2.80;2.37;;;;;;;9.41;100.00;97119.16;5086739;28;20349;-70
2021/03/15 11:15:45;;;;;;;3.07;2.10;;;;;;;9.39;100.00;97121.47;5084402;28;20658;-71
2021/03/15 11:18:24;;;;;;;3.13;2.30;;;;;;;9.19;100.00;97111.50;5090714;28;20193;-72
2021/03/15 11:20:58;;;;;;;3.00;1.93;;;;;;;9.40;100.00;97112.03;5089444;28;20207;-71
2021/03/15 11:23:38;;;;;;;2.70;2.10;;;;;;;9.37;100.00;97112.75;5090955;28;20654;-72
2021/03/15 11:26:10;;;;;;;2.17;1.90;;;;;;;9.12;100.00;97105.81;5091898;28;20483;-72
2021/03/15 11:28:40;;;;;;;3.67;1.87;;;;;;;8.90;100.00;97100.88;5089302;28;20288;-72
2021/03/15 11:31:12;;;;;;;3.03;2.23;;;;;;;9.08;100.00;97104.91;5087073;28;20197;-73
2021/03/15 11:33:38;;;;;;;3.90;2.47;;;;;;;9.17;100.00;97105.53;5091393;28;20687;-72
2021/03/15 11:36:15;;;;;;;2.73;2.10;;;;;;;9.10;100.00;97097.09;5095964;28;20220;-72
2021/03/15 11:38:55;;;;;;;2.80;2.37;;;;;;;8.96;100.00;97096.69;5088659;28;20224;-73
2021/03/15 11:41:26;;;;;;;2.30;2.10;;;;;;;9.15;100.00;97094.09;5094690;28;20250;-70
2021/03/15 11:43:54;;;;;;;2.07;1.80;;;;;;;8.80;100.00;97098.63;5116150;27;20639;-73
2021/03/15 11:46:21;;;;;;;1.60;1.50;;;;;;;8.96;100.00;97092.00;5119913;27;20228;-71
2021/03/15 11:48:49;;;;;;;2.20;1.60;;;;;;;8.62;100.00;97095.41;5118001;27;20672;-71
2021/03/15 11:51:17;;;;;;;1.60;1.50;;;;;;;8.47;100.00;97095.31;5117657;27;20219;-70
2021/03/15 11:53:44;;;;;;;2.07;1.67;;;;;;;8.91;100.00;97083.22;5111836;28;20196;-70
2021/03/15 11:56:12;;;;;;;1.40;1.30;;;;;;;8.76;100.00;97081.22;5094407;28;20224;-71
2021/03/15 11:58:38;;;;;;;2.70;1.50;;;;;;;8.92;100.00;97084.84;5112984;28;20204;-71
2021/03/15 12:01:05;;;;;;;1.97;1.50;;;;;;;8.94;100.00;97077.03;5113792;28;20669;-71
2021/03/15 12:03:32;;;;;;;1.70;1.60;;;;;;;9.11;100.00;97079.44;5096242;28;20226;-72
2021/03/15 12:05:59;;;;;;;1.90;1.40;;;;;;;8.69;100.00;97081.03;5116961;28;20220;-71
2021/03/15 12:08:26;;;;;;;1.43;1.30;;;;;;;8.76;100.00;97075.72;5115690;28;20214;-71
2021/03/15 12:10:53;;;;;;;6.23;2.33;;;;;;;8.75;100.00;97074.94;5113376;28;20208;-71
2021/03/15 12:13:19;;;;;;;2.53;2.03;;;;;;;8.86;100.00;97075.22;5111669;28;20203;-71
2021/03/15 12:15:45;;;;;;;3.03;1.33;;;;;;;8.76;100.00;97078.47;5111303;28;20704;-70
2021/03/15 12:18:13;;;;;;;2.33;1.43;;;;;;;8.76;100.00;97076.53;5132442;27;20253;-71
2021/03/15 12:20:40;;;;;;;1.40;1.20;;;;;;;8.69;100.00;97081.03;5130617;27;20203;-71
2021/03/15 12:23:07;;;;;;;2.00;0.80;;;;;;;8.60;100.00;97078.44;5131494;27;20385;-70